Terminal Aerodrome Forecast
Issued by NWS Austin/San Antonio, TX

Home | Current Version | Previous Version | Text Only | Print | Product List | Glossary On
Versions: 1 2 3 4 5 6 7 8 9 10 11 12 13 14 15 16 17 18 19 20 21 22 23 24
000
FTUS44 KEWX 201200 AAA
TAFSAT
TAF AMD
KSAT 201243Z 2013/2118 16011KT P6SM BKN250
      TEMPO 2013/2015 BKN020
     FM201700 17010G20KT P6SM SCT040
     FM210100 14016KT P6SM SCT070
     FM210800 16010KT P6SM BKN015
     FM211600 17014KT P6SM SCT040=

USA.gov is the U.S. government's official web portal to all federal, state and local government web resources and services.